sensor_id;sensor_type;location;lat;lon;timestamp;pressure;altitude;pressure_sealevel;temperature;humidity
59417;BME280;45222;52.458;20.914;2023-08-06T00:03:33;99598.34;;;18.28;100.00
59417;BME280;45222;52.458;20.914;2023-08-06T00:07:21;99603.80;;;18.33;100.00
59417;BME280;45222;52.458;20.914;2023-08-06T00:11:09;99604.59;;;18.38;100.00
59417;BME280;45222;52.458;20.914;2023-08-06T00:14:57;99606.34;;;18.45;100.00
59417;BME280;45222;52.458;20.914;2023-08-06T00:18:45;99605.61;;;18.53;100.00
59417;BME280;45222;52.458;20.914;2023-08-06T00:22:34;99592.77;;;18.55;100.00
59417;BME280;45222;52.458;20.914;2023-08-06T00:26:20;99592.15;;;18.54;100.00
59417;BME280;45222;52.458;20.914;2023-08-06T00:30:09;99594.06;;;18.49;100.00
59417;BME280;45222;52.458;20.914;2023-08-06T00:33:57;99605.09;;;18.45;100.00
59417;BME280;45222;52.458;20.914;2023-08-06T00:37:45;99614.52;;;18.44;100.00
59417;BME280;45222;52.458;20.914;2023-08-06T00:41:32;99622.03;;;18.44;100.00
59417;BME280;45222;52.458;20.914;2023-08-06T00:45:22;99624.24;;;18.42;100.00
59417;BME280;45222;52.458;20.914;2023-08-06T00:49:10;99609.90;;;18.37;100.00
59417;BME280;45222;52.458;20.914;2023-08-06T00:52:59;99590.09;;;18.30;100.00
59417;BME280;45222;52.458;20.914;2023-08-06T00:56:47;99577.67;;;18.24;100.00
59417;BME280;45222;52.458;20.914;2023-08-06T01:00:35;99573.02;;;18.20;100.00
59417;BME280;45222;52.458;20.914;2023-08-06T01:04:24;99552.56;;;18.15;100.00
59417;BME280;45222;52.458;20.914;2023-08-06T01:08:22;99536.55;;;18.11;100.00
59417;BME280;45222;52.458;20.914;2023-08-06T01:12:21;99516.70;;;18.08;100.00
59417;BME280;45222;52.458;20.914;2023-08-06T01:16:13;99502.28;;;18.06;100.00
59417;BME280;45222;52.458;20.914;2023-08-06T01:20:01;99489.33;;;18.04;100.00
59417;BME280;45222;52.458;20.914;2023-08-06T01:23:50;99474.02;;;18.01;100.00
59417;BME280;45222;52.458;20.914;2023-08-06T01:27:44;99456.44;;;18.00;100.00
59417;BME280;45222;52.458;20.914;2023-08-06T01:31:36;99439.41;;;18.01;100.00
59417;BME280;45222;52.458;20.914;2023-08-06T01:35:26;99420.02;;;18.07;100.00
59417;BME280;45222;52.458;20.914;2023-08-06T01:39:14;99395.02;;;18.13;100.00
59417;BME280;45222;52.458;20.914;2023-08-06T01:43:02;99378.94;;;18.17;100.00
59417;BME280;45222;52.458;20.914;2023-08-06T01:46:50;99368.54;;;18.18;100.00
59417;BME280;45222;52.458;20.914;2023-08-06T01:50:38;99367.45;;;18.18;100.00
59417;BME280;45222;52.458;20.914;2023-08-06T01:54:26;99360.00;;;18.19;100.00
59417;BME280;45222;52.458;20.914;2023-08-06T01:58:13;99341.45;;;18.19;100.00
59417;BME280;45222;52.458;20.914;2023-08-06T02:02:01;99336.18;;;18.18;100.00
59417;BME280;45222;52.458;20.914;2023-08-06T02:05:49;99331.32;;;18.18;100.00
59417;BME280;45222;52.458;20.914;2023-08-06T02:09:37;99328.73;;;18.19;100.00
59417;BME280;45222;52.458;20.914;2023-08-06T02:13:26;99327.55;;;18.20;100.00
59417;BME280;45222;52.458;20.914;2023-08-06T02:17:14;99326.64;;;18.22;100.00
59417;BME280;45222;52.458;20.914;2023-08-06T02:21:02;99322.92;;;18.23;100.00
59417;BME280;45222;52.458;20.914;2023-08-06T02:24:52;99328.64;;;18.26;100.00
59417;BME280;45222;52.458;20.914;2023-08-06T02:28:39;99327.17;;;18.28;100.00
59417;BME280;45222;52.458;20.914;2023-08-06T02:32:27;99318.06;;;18.27;100.00
59417;BME280;45222;52.458;20.914;2023-08-06T02:36:18;99301.64;;;18.26;100.00
59417;BME280;45222;52.458;20.914;2023-08-06T02:40:07;99299.11;;;18.26;100.00
59417;BME280;45222;52.458;20.914;2023-08-06T02:43:55;99292.54;;;18.27;100.00
59417;BME280;45222;52.458;20.914;2023-08-06T02:47:43;99290.59;;;18.27;100.00
59417;BME280;45222;52.458;20.914;2023-08-06T02:51:31;99294.73;;;18.28;100.00
59417;BME280;45222;52.458;20.914;2023-08-06T02:55:19;99299.39;;;18.32;100.00
59417;BME280;45222;52.458;20.914;2023-08-06T02:59:07;99294.98;;;18.34;100.00
59417;BME280;45222;52.458;20.914;2023-08-06T03:02:55;99280.83;;;18.38;100.00
59417;BME280;45222;52.458;20.914;2023-08-06T03:06:43;99270.67;;;18.42;100.00
59417;BME280;45222;52.458;20.914;2023-08-06T03:10:31;99266.54;;;18.47;100.00
59417;BME280;45222;52.458;20.914;2023-08-06T03:14:19;99262.88;;;18.52;100.00
59417;BME280;45222;52.458;20.914;2023-08-06T03:18:07;99254.42;;;18.55;100.00
59417;BME280;45222;52.458;20.914;2023-08-06T03:21:55;99245.61;;;18.59;100.00
59417;BME280;45222;52.458;20.914;2023-08-06T03:25:43;99240.48;;;18.62;100.00
59417;BME280;45222;52.458;20.914;2023-08-06T03:29:31;99238.09;;;18.62;100.00
59417;BME280;45222;52.458;20.914;2023-08-06T03:33:19;99228.20;;;18.62;100.00
59417;BME280;45222;52.458;20.914;2023-08-06T03:37:07;99218.85;;;18.64;100.00
59417;BME280;45222;52.458;20.914;2023-08-06T03:40:55;99211.58;;;18.66;100.00
59417;BME280;45222;52.458;20.914;2023-08-06T03:44:43;99202.66;;;18.67;100.00
59417;BME280;45222;52.458;20.914;2023-08-06T03:48:30;99203.30;;;18.70;100.00
59417;BME280;45222;52.458;20.914;2023-08-06T03:52:19;99197.71;;;18.72;100.00
59417;BME280;45222;52.458;20.914;2023-08-06T03:56:07;99186.32;;;18.74;100.00
59417;BME280;45222;52.458;20.914;2023-08-06T03:59:55;99178.84;;;18.76;100.00
59417;BME280;45222;52.458;20.914;2023-08-06T04:03:43;99164.71;;;18.81;100.00
59417;BME280;45222;52.458;20.914;2023-08-06T04:07:31;99153.70;;;18.85;100.00
59417;BME280;45222;52.458;20.914;2023-08-06T04:11:19;99146.05;;;18.87;100.00
59417;BME280;45222;52.458;20.914;2023-08-06T04:15:08;99139.17;;;18.89;100.00
59417;BME280;45222;52.458;20.914;2023-08-06T04:18:56;99128.82;;;18.92;100.00
59417;BME280;45222;52.458;20.914;2023-08-06T04:22:44;99116.52;;;18.96;100.00
59417;BME280;45222;52.458;20.914;2023-08-06T04:26:33;99106.23;;;19.01;100.00
59417;BME280;45222;52.458;20.914;2023-08-06T04:30:20;99093.67;;;19.08;100.00
59417;BME280;45222;52.458;20.914;2023-08-06T04:34:08;99080.18;;;19.15;100.00
59417;BME280;45222;52.458;20.914;2023-08-06T04:37:57;99072.41;;;19.20;100.00
59417;BME280;45222;52.458;20.914;2023-08-06T04:41:45;99068.42;;;19.25;100.00
59417;BME280;45222;52.458;20.914;2023-08-06T04:45:33;99069.58;;;19.32;100.00
59417;BME280;45222;52.458;20.914;2023-08-06T04:49:21;99070.39;;;19.36;100.00
59417;BME280;45222;52.458;20.914;2023-08-06T04:53:09;99072.10;;;19.40;100.00
59417;BME280;45222;52.458;20.914;2023-08-06T04:56:58;99069.75;;;19.47;100.00
59417;BME280;45222;52.458;20.914;2023-08-06T05:00:46;99066.77;;;19.56;100.00
59417;BME280;45222;52.458;20.914;2023-08-06T05:04:34;99060.05;;;19.69;100.00
59417;BME280;45222;52.458;20.914;2023-08-06T05:08:22;99052.52;;;19.82;100.00
59417;BME280;45222;52.458;20.914;2023-08-06T05:12:10;99044.80;;;19.95;100.00
59417;BME280;45222;52.458;20.914;2023-08-06T05:15:58;99037.27;;;20.10;100.00
59417;BME280;45222;52.458;20.914;2023-08-06T05:19:47;99033.57;;;20.19;100.00
59417;BME280;45222;52.458;20.914;2023-08-06T05:23:33;99028.13;;;20.27;99.93
59417;BME280;45222;52.458;20.914;2023-08-06T05:27:21;99029.36;;;20.37;99.98
59417;BME280;45222;52.458;20.914;2023-08-06T05:31:09;99017.48;;;20.52;99.31
59417;BME280;45222;52.458;20.914;2023-08-06T05:34:57;99015.41;;;20.65;99.00
59417;BME280;45222;52.458;20.914;2023-08-06T05:38:45;99010.78;;;20.83;98.32
59417;BME280;45222;52.458;20.914;2023-08-06T05:42:34;98998.10;;;20.97;97.50
59417;BME280;45222;52.458;20.914;2023-08-06T05:46:22;98996.20;;;21.12;96.85
59417;BME280;45222;52.458;20.914;2023-08-06T05:50:10;98990.70;;;21.28;96.33
59417;BME280;45222;52.458;20.914;2023-08-06T05:53:58;98990.33;;;21.40;94.35
59417;BME280;45222;52.458;20.914;2023-08-06T05:57:53;98975.86;;;21.50;93.45
59417;BME280;45222;52.458;20.914;2023-08-06T06:01:44;98960.56;;;21.60;92.95
59417;BME280;45222;52.458;20.914;2023-08-06T06:05:32;98949.24;;;21.73;92.21
59417;BME280;45222;52.458;20.914;2023-08-06T06:09:20;98941.24;;;21.86;91.07
59417;BME280;45222;52.458;20.914;2023-08-06T06:13:06;98939.23;;;21.97;89.52
59417;BME280;45222;52.458;20.914;2023-08-06T06:16:54;98937.60;;;22.07;89.68
59417;BME280;45222;52.458;20.914;2023-08-06T06:20:42;98941.05;;;22.21;88.55
59417;BME280;45222;52.458;20.914;2023-08-06T06:24:30;98931.52;;;22.32;87.72
59417;BME280;45222;52.458;20.914;2023-08-06T06:28:19;98929.33;;;22.46;87.54
59417;BME280;45222;52.458;20.914;2023-08-06T06:32:07;98923.69;;;22.56;86.70
59417;BME280;45222;52.458;20.914;2023-08-06T06:35:55;98923.50;;;22.65;86.56
59417;BME280;45222;52.458;20.914;2023-08-06T06:39:43;98917.36;;;22.72;84.82
59417;BME280;45222;52.458;20.914;2023-08-06T06:43:31;98920.84;;;22.79;84.32
59417;BME280;45222;52.458;20.914;2023-08-06T06:47:18;98916.10;;;22.85;83.97
59417;BME280;45222;52.458;20.914;2023-08-06T06:51:06;98917.20;;;22.97;84.73
59417;BME280;45222;52.458;20.914;2023-08-06T06:54:54;98909.44;;;23.14;83.25
59417;BME280;45222;52.458;20.914;2023-08-06T06:58:42;98895.42;;;23.28;82.09
59417;BME280;45222;52.458;20.914;2023-08-06T07:02:30;98900.69;;;23.42;80.83
59417;BME280;45222;52.458;20.914;2023-08-06T07:06:18;98904.83;;;23.57;80.81
59417;BME280;45222;52.458;20.914;2023-08-06T07:10:05;98904.22;;;23.75;80.83
59417;BME280;45222;52.458;20.914;2023-08-06T07:13:57;98899.33;;;23.86;79.00
59417;BME280;45222;52.458;20.914;2023-08-06T07:17:45;98892.08;;;24.01;79.36
59417;BME280;45222;52.458;20.914;2023-08-06T07:21:33;98892.17;;;24.16;79.14
59417;BME280;45222;52.458;20.914;2023-08-06T07:25:21;98892.06;;;24.28;77.82
59417;BME280;45222;52.458;20.914;2023-08-06T07:29:09;98888.00;;;24.38;76.18
59417;BME280;45222;52.458;20.914;2023-08-06T07:32:57;98885.06;;;24.44;74.76
59417;BME280;45222;52.458;20.914;2023-08-06T07:36:46;98888.05;;;24.55;76.23
59417;BME280;45222;52.458;20.914;2023-08-06T07:40:34;98885.61;;;24.66;75.17
59417;BME280;45222;52.458;20.914;2023-08-06T07:44:23;98886.39;;;24.87;75.73
59417;BME280;45222;52.458;20.914;2023-08-06T07:48:11;98885.73;;;25.08;75.06
59417;BME280;45222;52.458;20.914;2023-08-06T07:51:59;98880.35;;;25.25;74.20
59417;BME280;45222;52.458;20.914;2023-08-06T07:55:50;98880.77;;;25.40;72.98
59417;BME280;45222;52.458;20.914;2023-08-06T07:59:38;98878.45;;;25.57;73.35
59417;BME280;45222;52.458;20.914;2023-08-06T08:03:26;98872.75;;;25.67;72.86
59417;BME280;45222;52.458;20.914;2023-08-06T08:07:14;98877.95;;;25.81;71.74
59417;BME280;45222;52.458;20.914;2023-08-06T08:11:02;98873.77;;;25.89;69.75
59417;BME280;45222;52.458;20.914;2023-08-06T08:14:50;98863.24;;;25.95;70.50
59417;BME280;45222;52.458;20.914;2023-08-06T08:18:40;98864.86;;;26.09;70.77
59417;BME280;45222;52.458;20.914;2023-08-06T08:22:28;98863.88;;;26.23;69.47
59417;BME280;45222;52.458;20.914;2023-08-06T08:26:14;98856.90;;;26.36;68.30
59417;BME280;45222;52.458;20.914;2023-08-06T08:30:03;98853.93;;;26.43;68.40
59417;BME280;45222;52.458;20.914;2023-08-06T08:33:51;98844.29;;;26.55;68.85
59417;BME280;45222;52.458;20.914;2023-08-06T08:37:40;98846.05;;;26.62;68.27
59417;BME280;45222;52.458;20.914;2023-08-06T08:41:29;98844.62;;;26.72;68.29
59417;BME280;45222;52.458;20.914;2023-08-06T08:45:19;98836.14;;;26.94;67.88
59417;BME280;45222;52.458;20.914;2023-08-06T08:49:08;98833.04;;;27.12;67.65
59417;BME280;45222;52.458;20.914;2023-08-06T08:52:56;98827.35;;;27.25;66.76
59417;BME280;45222;52.458;20.914;2023-08-06T08:56:44;98823.77;;;27.45;66.63
59417;BME280;45222;52.458;20.914;2023-08-06T09:00:32;98823.06;;;27.70;66.05
59417;BME280;45222;52.458;20.914;2023-08-06T09:04:22;98812.55;;;27.91;65.75
59417;BME280;45222;52.458;20.914;2023-08-06T09:08:17;98812.90;;;28.10;64.81
59417;BME280;45222;52.458;20.914;2023-08-06T09:12:12;98813.92;;;28.25;62.94
59417;BME280;45222;52.458;20.914;2023-08-06T09:16:01;98808.69;;;28.36;62.68
59417;BME280;45222;52.458;20.914;2023-08-06T09:19:49;98798.35;;;28.39;62.46
59417;BME280;45222;52.458;20.914;2023-08-06T09:23:37;98796.60;;;28.37;61.59
59417;BME280;45222;52.458;20.914;2023-08-06T09:27:26;98789.73;;;28.41;61.75
59417;BME280;45222;52.458;20.914;2023-08-06T09:31:14;98782.94;;;28.45;60.61
59417;BME280;45222;52.458;20.914;2023-08-06T09:35:02;98776.11;;;28.53;61.18
59417;BME280;45222;52.458;20.914;2023-08-06T09:38:51;98773.14;;;28.69;60.79
59417;BME280;45222;52.458;20.914;2023-08-06T09:42:39;98771.15;;;28.91;60.42
59417;BME280;45222;52.458;20.914;2023-08-06T09:46:33;98770.27;;;29.06;60.09
59417;BME280;45222;52.458;20.914;2023-08-06T09:50:21;98769.02;;;29.11;60.59
59417;BME280;45222;52.458;20.914;2023-08-06T09:54:10;98771.23;;;29.14;59.57
59417;BME280;45222;52.458;20.914;2023-08-06T09:58:00;98763.74;;;29.24;59.06
59417;BME280;45222;52.458;20.914;2023-08-06T10:01:47;98762.57;;;29.37;59.15
59417;BME280;45222;52.458;20.914;2023-08-06T10:05:36;98759.50;;;29.49;59.31
59417;BME280;45222;52.458;20.914;2023-08-06T10:09:25;98749.69;;;29.62;57.97
59417;BME280;45222;52.458;20.914;2023-08-06T10:13:14;98749.33;;;29.68;57.16
59417;BME280;45222;52.458;20.914;2023-08-06T10:17:04;98746.16;;;29.87;57.70
59417;BME280;45222;52.458;20.914;2023-08-06T10:20:52;98739.61;;;30.13;57.13
59417;BME280;45222;52.458;20.914;2023-08-06T10:24:54;98734.73;;;30.27;55.97
59417;BME280;45222;52.458;20.914;2023-08-06T10:28:42;98727.58;;;30.36;55.84
59417;BME280;45222;52.458;20.914;2023-08-06T10:32:50;98718.70;;;30.51;55.13
59417;BME280;45222;52.458;20.914;2023-08-06T10:36:38;98715.92;;;30.65;54.51
59417;BME280;45222;52.458;20.914;2023-08-06T10:40:26;98712.22;;;30.63;54.17
59417;BME280;45222;52.458;20.914;2023-08-06T10:44:17;98704.29;;;30.71;53.23
59417;BME280;45222;52.458;20.914;2023-08-06T10:48:05;98705.04;;;30.83;53.34
59417;BME280;45222;52.458;20.914;2023-08-06T10:51:53;98703.06;;;30.94;53.05
59417;BME280;45222;52.458;20.914;2023-08-06T10:55:41;98701.05;;;31.13;53.08
59417;BME280;45222;52.458;20.914;2023-08-06T10:59:29;98700.13;;;31.27;51.22
59417;BME280;45222;52.458;20.914;2023-08-06T11:03:17;98691.24;;;31.17;52.07
59417;BME280;45222;52.458;20.914;2023-08-06T11:07:06;98681.11;;;30.88;51.88
59417;BME280;45222;52.458;20.914;2023-08-06T11:10:54;98681.29;;;30.53;52.30
59417;BME280;45222;52.458;20.914;2023-08-06T11:14:42;98671.95;;;30.48;53.30
59417;BME280;45222;52.458;20.914;2023-08-06T11:18:31;98661.85;;;30.75;52.39
59417;BME280;45222;52.458;20.914;2023-08-06T11:22:19;98650.61;;;30.91;52.15
59417;BME280;45222;52.458;20.914;2023-08-06T11:26:07;98647.65;;;30.85;50.85
59417;BME280;45222;52.458;20.914;2023-08-06T11:29:55;98638.27;;;30.91;51.46
59417;BME280;45222;52.458;20.914;2023-08-06T11:33:42;98633.80;;;31.12;50.22
59417;BME280;45222;52.458;20.914;2023-08-06T11:37:30;98631.37;;;31.21;50.04
59417;BME280;45222;52.458;20.914;2023-08-06T11:41:19;98627.61;;;31.30;49.57
59417;BME280;45222;52.458;20.914;2023-08-06T11:45:08;98624.83;;;31.18;50.21
59417;BME280;45222;52.458;20.914;2023-08-06T11:48:57;98616.08;;;31.05;50.55
59417;BME280;45222;52.458;20.914;2023-08-06T11:52:45;98608.09;;;30.94;49.83
59417;BME280;45222;52.458;20.914;2023-08-06T11:56:33;98603.41;;;31.06;49.94
59417;BME280;45222;52.458;20.914;2023-08-06T12:00:24;98593.17;;;31.43;49.54
59417;BME280;45222;52.458;20.914;2023-08-06T12:04:12;98593.98;;;31.70;49.08
59417;BME280;45222;52.458;20.914;2023-08-06T12:08:02;98586.56;;;31.68;48.24
59417;BME280;45222;52.458;20.914;2023-08-06T12:11:52;98581.16;;;31.57;48.57
59417;BME280;45222;52.458;20.914;2023-08-06T12:15:40;98582.77;;;31.59;48.66
59417;BME280;45222;52.458;20.914;2023-08-06T12:19:27;98580.98;;;31.61;47.61
59417;BME280;45222;52.458;20.914;2023-08-06T12:23:17;98584.30;;;31.35;46.84
59417;BME280;45222;52.458;20.914;2023-08-06T12:27:05;98582.27;;;31.14;47.10
59417;BME280;45222;52.458;20.914;2023-08-06T12:30:53;98577.69;;;31.02;47.17
59417;BME280;45222;52.458;20.914;2023-08-06T12:34:43;98583.02;;;30.81;47.94
59417;BME280;45222;52.458;20.914;2023-08-06T12:38:30;98590.02;;;30.59;48.24
59417;BME280;45222;52.458;20.914;2023-08-06T12:42:20;98595.61;;;30.36;49.10
59417;BME280;45222;52.458;20.914;2023-08-06T12:46:08;98590.90;;;30.13;48.82
59417;BME280;45222;52.458;20.914;2023-08-06T12:49:56;98584.05;;;29.96;49.32
59417;BME280;45222;52.458;20.914;2023-08-06T12:53:44;98585.05;;;29.79;49.56
59417;BME280;45222;52.458;20.914;2023-08-06T12:57:32;98566.20;;;29.64;50.03
59417;BME280;45222;52.458;20.914;2023-08-06T13:01:21;98561.06;;;29.49;50.40
59417;BME280;45222;52.458;20.914;2023-08-06T13:05:09;98559.55;;;29.37;50.52
59417;BME280;45222;52.458;20.914;2023-08-06T13:08:58;98542.23;;;29.27;51.47
59417;BME280;45222;52.458;20.914;2023-08-06T13:12:46;98542.98;;;29.19;51.62
59417;BME280;45222;52.458;20.914;2023-08-06T13:16:34;98545.68;;;29.09;51.98
59417;BME280;45222;52.458;20.914;2023-08-06T13:20:22;98557.98;;;29.01;52.36
59417;BME280;45222;52.458;20.914;2023-08-06T13:24:10;98566.46;;;28.97;52.70
59417;BME280;45222;52.458;20.914;2023-08-06T13:27:58;98560.77;;;28.90;52.78
59417;BME280;45222;52.458;20.914;2023-08-06T13:31:46;98554.61;;;28.81;52.70
59417;BME280;45222;52.458;20.914;2023-08-06T13:35:33;98558.83;;;28.90;53.73
59417;BME280;45222;52.458;20.914;2023-08-06T13:39:21;98574.21;;;29.21;54.65
59417;BME280;45222;52.458;20.914;2023-08-06T13:43:09;98577.77;;;29.33;54.36
59417;BME280;45222;52.458;20.914;2023-08-06T13:46:57;98578.59;;;29.51;54.50
59417;BME280;45222;52.458;20.914;2023-08-06T13:50:45;98585.21;;;29.76;54.45
59417;BME280;45222;52.458;20.914;2023-08-06T13:54:33;98581.66;;;30.12;53.76
59417;BME280;45222;52.458;20.914;2023-08-06T13:58:21;98579.72;;;30.40;53.80
59417;BME280;45222;52.458;20.914;2023-08-06T14:02:10;98577.50;;;30.68;52.77
59417;BME280;45222;52.458;20.914;2023-08-06T14:05:58;98577.49;;;30.92;52.69
59417;BME280;45222;52.458;20.914;2023-08-06T14:09:46;98563.80;;;31.26;51.77
59417;BME280;45222;52.458;20.914;2023-08-06T14:13:35;98558.90;;;31.47;50.67
59417;BME280;45222;52.458;20.914;2023-08-06T14:17:23;98572.19;;;31.22;50.45
59417;BME280;45222;52.458;20.914;2023-08-06T14:21:11;98587.10;;;30.89;50.08
59417;BME280;45222;52.458;20.914;2023-08-06T14:24:59;98592.59;;;30.61;50.13
59417;BME280;45222;52.458;20.914;2023-08-06T14:28:47;98592.07;;;30.55;50.03
59417;BME280;45222;52.458;20.914;2023-08-06T14:32:36;98612.21;;;30.69;49.74
59417;BME280;45222;52.458;20.914;2023-08-06T14:36:24;98616.51;;;30.79;49.41
59417;BME280;45222;52.458;20.914;2023-08-06T14:40:13;98625.63;;;30.73;48.20
59417;BME280;45222;52.458;20.914;2023-08-06T14:44:01;98626.02;;;30.77;47.70
59417;BME280;45222;52.458;20.914;2023-08-06T14:47:49;98627.04;;;30.70;48.74
59417;BME280;45222;52.458;20.914;2023-08-06T14:51:37;98639.15;;;30.48;47.91
59417;BME280;45222;52.458;20.914;2023-08-06T14:55:29;98638.08;;;30.09;48.13
59417;BME280;45222;52.458;20.914;2023-08-06T14:59:17;98646.45;;;29.82;48.94
59417;BME280;45222;52.458;20.914;2023-08-06T15:03:04;98643.77;;;29.68;49.33
59417;BME280;45222;52.458;20.914;2023-08-06T15:06:52;98646.76;;;29.53;49.07
59417;BME280;45222;52.458;20.914;2023-08-06T15:10:41;98644.19;;;29.54;48.79
59417;BME280;45222;52.458;20.914;2023-08-06T15:14:29;98642.98;;;29.56;48.89
59417;BME280;45222;52.458;20.914;2023-08-06T15:18:17;98647.80;;;29.75;49.70
59417;BME280;45222;52.458;20.914;2023-08-06T15:22:06;98660.45;;;29.84;49.84
59417;BME280;45222;52.458;20.914;2023-08-06T15:25:53;98665.21;;;29.49;51.49
59417;BME280;45222;52.458;20.914;2023-08-06T15:29:42;98675.73;;;28.86;53.33
59417;BME280;45222;52.458;20.914;2023-08-06T15:33:30;98681.58;;;28.20;55.03
59417;BME280;45222;52.458;20.914;2023-08-06T15:37:17;98669.73;;;27.73;56.42
59417;BME280;45222;52.458;20.914;2023-08-06T15:41:05;98673.34;;;27.36;56.81
59417;BME280;45222;52.458;20.914;2023-08-06T15:44:53;98671.45;;;27.08;57.18
59417;BME280;45222;52.458;20.914;2023-08-06T15:48:41;98672.65;;;26.83;56.77
59417;BME280;45222;52.458;20.914;2023-08-06T15:52:28;98685.05;;;26.57;56.67
59417;BME280;45222;52.458;20.914;2023-08-06T15:56:16;98692.77;;;26.36;56.99
59417;BME280;45222;52.458;20.914;2023-08-06T16:00:06;98697.27;;;26.18;57.13
59417;BME280;45222;52.458;20.914;2023-08-06T16:03:54;98706.10;;;26.04;57.72
59417;BME280;45222;52.458;20.914;2023-08-06T16:07:42;98706.34;;;25.90;57.52
59417;BME280;45222;52.458;20.914;2023-08-06T16:11:28;98705.82;;;25.72;57.94
59417;BME280;45222;52.458;20.914;2023-08-06T16:15:16;98702.12;;;25.53;58.04
59417;BME280;45222;52.458;20.914;2023-08-06T16:19:06;98718.80;;;25.41;58.29
59417;BME280;45222;52.458;20.914;2023-08-06T16:22:54;98730.08;;;25.29;58.83
59417;BME280;45222;52.458;20.914;2023-08-06T16:26:41;98734.50;;;25.17;58.85
59417;BME280;45222;52.458;20.914;2023-08-06T16:30:29;98742.44;;;25.01;59.10
59417;BME280;45222;52.458;20.914;2023-08-06T16:34:18;98747.85;;;24.88;59.75
59417;BME280;45222;52.458;20.914;2023-08-06T16:38:06;98740.02;;;24.69;59.66
59417;BME280;45222;52.458;20.914;2023-08-06T16:41:54;98747.13;;;24.50;60.02
59417;BME280;45222;52.458;20.914;2023-08-06T16:45:44;98746.50;;;24.36;60.57
59417;BME280;45222;52.458;20.914;2023-08-06T16:49:32;98722.46;;;24.25;60.83
59417;BME280;45222;52.458;20.914;2023-08-06T16:53:20;98719.46;;;24.16;61.19
59417;BME280;45222;52.458;20.914;2023-08-06T16:57:09;98728.70;;;24.06;61.51
59417;BME280;45222;52.458;20.914;2023-08-06T17:00:57;98742.67;;;23.99;62.37
59417;BME280;45222;52.458;20.914;2023-08-06T17:04:49;98732.93;;;23.94;62.30
59417;BME280;45222;52.458;20.914;2023-08-06T17:08:37;98729.47;;;23.90;62.66
59417;BME280;45222;52.458;20.914;2023-08-06T17:12:23;98723.18;;;23.87;62.88
59417;BME280;45222;52.458;20.914;2023-08-06T17:16:13;98727.21;;;23.81;62.86
59417;BME280;45222;52.458;20.914;2023-08-06T17:20:01;98737.58;;;23.75;63.26
59417;BME280;45222;52.458;20.914;2023-08-06T17:23:49;98744.09;;;23.64;64.05
59417;BME280;45222;52.458;20.914;2023-08-06T17:27:37;98747.79;;;23.52;64.40
59417;BME280;45222;52.458;20.914;2023-08-06T17:31:25;98753.63;;;23.43;64.96
59417;BME280;45222;52.458;20.914;2023-08-06T17:35:11;98750.41;;;23.33;65.47
59417;BME280;45222;52.458;20.914;2023-08-06T17:38:59;98756.87;;;23.20;65.92
59417;BME280;45222;52.458;20.914;2023-08-06T17:42:47;98756.08;;;23.05;66.09
59417;BME280;45222;52.458;20.914;2023-08-06T17:46:36;98775.92;;;22.87;66.48
59417;BME280;45222;52.458;20.914;2023-08-06T17:50:24;98776.68;;;22.68;67.09
59417;BME280;45222;52.458;20.914;2023-08-06T17:54:12;98774.75;;;22.48;68.06
59417;BME280;45222;52.458;20.914;2023-08-06T17:58:00;98783.75;;;22.31;68.12
59417;BME280;45222;52.458;20.914;2023-08-06T18:01:48;98798.46;;;22.14;68.56
59417;BME280;45222;52.458;20.914;2023-08-06T18:05:37;98810.61;;;21.98;69.40
59417;BME280;45222;52.458;20.914;2023-08-06T18:09:25;98803.30;;;21.83;69.98
59417;BME280;45222;52.458;20.914;2023-08-06T18:13:14;98800.70;;;21.69;70.44
59417;BME280;45222;52.458;20.914;2023-08-06T18:17:02;98799.63;;;21.56;70.55
59417;BME280;45222;52.458;20.914;2023-08-06T18:20:48;98811.81;;;21.42;70.84
59417;BME280;45222;52.458;20.914;2023-08-06T18:24:36;98834.02;;;21.24;71.20
59417;BME280;45222;52.458;20.914;2023-08-06T18:28:25;98841.61;;;21.08;71.97
59417;BME280;45222;52.458;20.914;2023-08-06T18:32:13;98847.46;;;20.92;72.27
59417;BME280;45222;52.458;20.914;2023-08-06T18:36:00;98848.76;;;20.76;72.77
59417;BME280;45222;52.458;20.914;2023-08-06T18:39:50;98839.83;;;20.58;73.18
59417;BME280;45222;52.458;20.914;2023-08-06T18:43:39;98832.10;;;20.45;73.74
59417;BME280;45222;52.458;20.914;2023-08-06T18:47:28;98828.44;;;20.34;73.41
59417;BME280;45222;52.458;20.914;2023-08-06T18:51:15;98833.02;;;20.24;73.55
59417;BME280;45222;52.458;20.914;2023-08-06T18:55:08;98843.45;;;20.13;74.09
59417;BME280;45222;52.458;20.914;2023-08-06T18:58:56;98849.87;;;20.04;74.04
59417;BME280;45222;52.458;20.914;2023-08-06T19:02:45;98869.63;;;19.95;74.47
59417;BME280;45222;52.458;20.914;2023-08-06T19:06:31;98875.50;;;19.84;74.28
59417;BME280;45222;52.458;20.914;2023-08-06T19:10:19;98877.89;;;19.71;74.57
59417;BME280;45222;52.458;20.914;2023-08-06T19:14:09;98866.85;;;19.61;75.20
59417;BME280;45222;52.458;20.914;2023-08-06T19:17:57;98850.56;;;19.52;75.20
59417;BME280;45222;52.458;20.914;2023-08-06T19:21:45;98858.28;;;19.41;75.52
59417;BME280;45222;52.458;20.914;2023-08-06T19:25:41;98851.76;;;19.26;75.52
59417;BME280;45222;52.458;20.914;2023-08-06T19:29:30;98841.55;;;19.10;75.21
59417;BME280;45222;52.458;20.914;2023-08-06T19:33:19;98835.59;;;18.92;74.67
59417;BME280;45222;52.458;20.914;2023-08-06T19:37:08;98846.64;;;18.74;74.83
59417;BME280;45222;52.458;20.914;2023-08-06T19:41:05;98848.98;;;18.59;75.10
59417;BME280;45222;52.458;20.914;2023-08-06T19:44:51;98848.96;;;18.45;74.95
59417;BME280;45222;52.458;20.914;2023-08-06T19:48:37;98840.20;;;18.30;75.03
59417;BME280;45222;52.458;20.914;2023-08-06T19:52:24;98834.87;;;18.18;75.20